Time;durP1;ratioP1;P1;durP2;ratioP2;P2;SDS_P1;SDS_P2;PMS_P1;PMS_P2;Temp;Humidity;BMP_temperature;BMP_pressure;BME280_temperature;BME280_humidity;BME280_pressure;Samples;Min_cycle;Max_cycle;Signal;HPM_P1;HPM_P2
2022/09/13 00:00:58;;;;;;;3.65;1.77;;;;;;;;;;5081605;28;20196;-70
2022/09/13 00:03:24;;;;;;;2.65;2.00;;;;;;;;;;5081309;28;20408;-70
2022/09/13 00:05:51;;;;;;;2.50;2.30;;;;;;;;;;5081475;28;20251;-70
2022/09/13 00:08:18;;;;;;;2.05;1.92;;;;;;;;;;5085194;28;20196;-70
2022/09/13 00:10:45;;;;;;;2.17;2.17;;;;;;;;;;5085463;28;20203;-70
2022/09/13 00:13:12;;;;;;;5.40;2.47;;;;;;;;;;5085042;28;20219;-70
2022/09/13 00:15:42;;;;;;;2.35;2.33;;;;;;;;;;5085307;28;20676;-70
2022/09/13 00:18:08;;;;;;;3.17;2.78;;;;;;;;;;5085088;28;20211;-70
2022/09/13 00:20:35;;;;;;;3.63;2.42;;;;;;;;;;5085260;28;20204;-69
2022/09/13 00:23:01;;;;;;;3.50;2.92;;;;;;;;;;5084951;28;20504;-70
2022/09/13 00:25:28;;;;;;;3.78;3.00;;;;;;;;;;5084840;28;20224;-68
2022/09/13 00:27:55;;;;;;;4.60;2.83;;;;;;;;;;5085053;28;20196;-68
2022/09/13 00:30:21;;;;;;;5.88;3.30;;;;;;;;;;5085057;28;20234;-68
2022/09/13 00:32:47;;;;;;;4.93;2.95;;;;;;;;;;5085321;28;20200;-68
2022/09/13 00:35:13;;;;;;;3.88;2.80;;;;;;;;;;5084995;28;20193;-68
2022/09/13 00:37:40;;;;;;;3.45;2.63;;;;;;;;;;5085070;28;20197;-68
2022/09/13 00:40:07;;;;;;;7.50;2.83;;;;;;;;;;5084783;28;20242;-68
2022/09/13 00:42:34;;;;;;;4.05;3.25;;;;;;;;;;5084560;28;20250;-68
2022/09/13 00:45:02;;;;;;;4.60;2.40;;;;;;;;;;5084450;28;20220;-68
2022/09/13 00:47:34;;;;;;;5.53;2.88;;;;;;;;;;5084534;28;20203;-70
2022/09/13 00:50:02;;;;;;;2.55;2.33;;;;;;;;;;5084600;28;20234;-68
2022/09/13 00:52:30;;;;;;;2.72;2.30;;;;;;;;;;5084417;28;20695;-68
2022/09/13 00:55:00;;;;;;;4.63;2.70;;;;;;;;;;5084506;28;20238;-70
2022/09/13 00:57:27;;;;;;;2.40;2.30;;;;;;;;;;5084416;28;20426;-68
2022/09/13 00:59:57;;;;;;;2.38;2.28;;;;;;;;;;5084263;28;20235;-68
2022/09/13 01:02:23;;;;;;;2.60;2.40;;;;;;;;;;5084331;28;20242;-68
2022/09/13 01:04:50;;;;;;;3.47;2.40;;;;;;;;;;5084297;28;20228;-68
2022/09/13 01:07:17;;;;;;;2.63;2.50;;;;;;;;;;5084406;28;20496;-68
2022/09/13 01:09:44;;;;;;;2.63;2.47;;;;;;;;;;5084155;28;20373;-68
2022/09/13 01:12:17;;;;;;;2.60;2.50;;;;;;;;;;5084018;28;20196;-68
2022/09/13 01:14:43;;;;;;;2.20;2.15;;;;;;;;;;5084213;28;20227;-68
2022/09/13 01:17:11;;;;;;;2.13;2.03;;;;;;;;;;5084208;28;20200;-68
2022/09/13 01:19:37;;;;;;;2.97;2.55;;;;;;;;;;5083264;28;20200;-68
2022/09/13 01:22:14;;;;;;;3.05;2.67;;;;;;;;;;5083905;28;20196;-70
2022/09/13 01:24:51;;;;;;;2.40;2.30;;;;;;;;;;5083747;28;20251;-69
2022/09/13 01:27:38;;;;;;;2.85;2.63;;;;;;;;;;5083845;28;20203;-69
2022/09/13 01:30:16;;;;;;;2.25;2.13;;;;;;;;;;5083384;28;20196;-70
2022/09/13 01:33:08;;;;;;;2.75;2.60;;;;;;;;;;5083770;28;20228;-69
2022/09/13 01:35:41;;;;;;;2.65;2.55;;;;;;;;;;5083575;28;20193;-69
2022/09/13 01:38:14;;;;;;;2.33;2.22;;;;;;;;;;5084215;28;20204;-70
2022/09/13 01:40:51;;;;;;;3.80;3.47;;;;;;;;;;5083628;28;20234;-70
2022/09/13 01:43:23;;;;;;;3.30;3.10;;;;;;;;;;5083406;28;20197;-69
2022/09/13 01:45:54;;;;;;;2.80;2.60;;;;;;;;;;5083392;28;20262;-70
2022/09/13 01:48:23;;;;;;;2.67;2.47;;;;;;;;;;5083446;28;20242;-70
2022/09/13 01:50:52;;;;;;;2.90;2.70;;;;;;;;;;5083314;28;20197;-69
2022/09/13 01:53:23;;;;;;;3.92;3.03;;;;;;;;;;5083048;28;20196;-69
2022/09/13 01:55:51;;;;;;;6.35;3.42;;;;;;;;;;5083473;28;20192;-69
2022/09/13 01:58:21;;;;;;;3.20;3.00;;;;;;;;;;5083219;28;20511;-70
2022/09/13 02:00:52;;;;;;;6.97;3.20;;;;;;;;;;5083284;28;20204;-69
2022/09/13 02:03:21;;;;;;;4.00;3.10;;;;;;;;;;5082896;28;20196;-69
2022/09/13 02:05:51;;;;;;;2.95;2.70;;;;;;;;;;5082827;28;20282;-69
2022/09/13 02:08:19;;;;;;;4.18;2.85;;;;;;;;;;5083229;28;20422;-69
2022/09/13 02:10:46;;;;;;;3.17;2.70;;;;;;;;;;5083064;28;20200;-69
2022/09/13 02:13:14;;;;;;;2.95;2.85;;;;;;;;;;5083001;28;20205;-69
2022/09/13 02:15:43;;;;;;;3.60;2.83;;;;;;;;;;5082872;28;20192;-69
2022/09/13 02:18:12;;;;;;;4.22;2.83;;;;;;;;;;5082715;28;20519;-70
2022/09/13 02:20:43;;;;;;;2.92;2.72;;;;;;;;;;5082956;28;20200;-69
2022/09/13 02:23:10;;;;;;;2.67;2.47;;;;;;;;;;5082713;28;20218;-69
2022/09/13 02:25:38;;;;;;;3.20;2.90;;;;;;;;;;5082814;28;20228;-69
2022/09/13 02:28:06;;;;;;;3.65;2.75;;;;;;;;;;5082605;28;20500;-69
2022/09/13 02:30:35;;;;;;;6.32;2.80;;;;;;;;;;5082431;28;20234;-70
2022/09/13 02:33:03;;;;;;;2.80;2.60;;;;;;;;;;5082853;28;20200;-69
2022/09/13 02:35:32;;;;;;;3.08;2.83;;;;;;;;;;5082690;28;20192;-70
2022/09/13 02:38:02;;;;;;;2.78;2.40;;;;;;;;;;5082682;28;20380;-69
2022/09/13 02:40:31;;;;;;;2.72;2.28;;;;;;;;;;5082557;28;20234;-69
2022/09/13 02:43:01;;;;;;;2.80;2.63;;;;;;;;;;5082620;28;20196;-69
2022/09/13 02:45:29;;;;;;;2.70;2.50;;;;;;;;;;5082421;28;20455;-69
2022/09/13 02:47:58;;;;;;;2.55;2.35;;;;;;;;;;5082498;28;20204;-69
2022/09/13 02:50:32;;;;;;;2.95;2.70;;;;;;;;;;5082592;28;20358;-69
2022/09/13 02:53:02;;;;;;;2.38;2.28;;;;;;;;;;5082278;28;20195;-69
2022/09/13 02:55:32;;;;;;;3.15;2.28;;;;;;;;;;5082274;28;20193;-69
2022/09/13 02:58:01;;;;;;;2.70;2.50;;;;;;;;;;5082323;28;20200;-69
2022/09/13 03:00:27;;;;;;;2.95;2.50;;;;;;;;;;5082575;28;20234;-69
2022/09/13 03:02:54;;;;;;;2.60;2.40;;;;;;;;;;5082251;28;20373;-69
2022/09/13 03:05:21;;;;;;;2.80;2.60;;;;;;;;;;5082545;28;20524;-69
2022/09/13 03:07:48;;;;;;;3.45;2.63;;;;;;;;;;5082116;28;20414;-69
2022/09/13 03:10:15;;;;;;;2.78;2.67;;;;;;;;;;5082022;28;20196;-69
2022/09/13 03:12:52;;;;;;;2.92;2.47;;;;;;;;;;5082111;28;20200;-69
2022/09/13 03:15:24;;;;;;;5.03;2.75;;;;;;;;;;5082186;28;20192;-69
2022/09/13 03:17:54;;;;;;;2.72;2.45;;;;;;;;;;5082322;28;20261;-69
2022/09/13 03:20:24;;;;;;;3.03;2.78;;;;;;;;;;5082171;28;20196;-70
2022/09/13 03:23:11;;;;;;;4.13;2.85;;;;;;;;;;5081721;28;20218;-69
2022/09/13 03:25:48;;;;;;;2.88;2.67;;;;;;;;;;5056166;28;20216;-69
2022/09/13 03:28:20;;;;;;;3.22;3.08;;;;;;;;;;5082040;28;20203;-69
2022/09/13 03:30:49;;;;;;;2.85;2.75;;;;;;;;;;5082000;28;20242;-69
2022/09/13 03:33:20;;;;;;;3.28;3.08;;;;;;;;;;5081641;28;20262;-69
2022/09/13 03:35:51;;;;;;;7.30;5.00;;;;;;;;;;5081969;28;20231;-70
2022/09/13 03:38:19;;;;;;;9.95;7.55;;;;;;;;;;5081967;28;20204;-69
2022/09/13 03:40:48;;;;;;;7.05;5.57;;;;;;;;;;5082115;28;20242;-70
2022/09/13 03:43:18;;;;;;;7.72;4.45;;;;;;;;;;5085289;28;20205;-69
2022/09/13 03:45:46;;;;;;;3.58;3.30;;;;;;;;;;5085536;28;20262;-69
2022/09/13 03:48:13;;;;;;;4.45;3.25;;;;;;;;;;5085880;28;20204;-69
2022/09/13 03:50:40;;;;;;;3.38;3.08;;;;;;;;;;5085912;28;20241;-69
2022/09/13 03:53:08;;;;;;;7.55;3.38;;;;;;;;;;5085421;28;20421;-70
2022/09/13 03:55:34;;;;;;;3.30;3.00;;;;;;;;;;5085708;28;20197;-69
2022/09/13 03:58:01;;;;;;;3.30;3.15;;;;;;;;;;5085413;28;20496;-70
2022/09/13 04:00:28;;;;;;;3.42;3.22;;;;;;;;;;5085645;28;20200;-69
2022/09/13 04:02:55;;;;;;;3.47;3.17;;;;;;;;;;5085419;28;20390;-69
2022/09/13 04:05:21;;;;;;;3.15;2.95;;;;;;;;;;5085302;28;20247;-69
2022/09/13 04:07:47;;;;;;;3.30;3.00;;;;;;;;;;5085330;28;20200;-69
2022/09/13 04:10:14;;;;;;;3.40;3.17;;;;;;;;;;5085183;28;20234;-69
2022/09/13 04:12:40;;;;;;;3.00;2.85;;;;;;;;;;5084819;28;20241;-69
2022/09/13 04:15:07;;;;;;;3.30;3.10;;;;;;;;;;5085219;28;20204;-69
2022/09/13 04:17:35;;;;;;;3.45;3.25;;;;;;;;;;5085327;28;20211;-69
2022/09/13 04:20:01;;;;;;;4.20;3.28;;;;;;;;;;5085212;28;20242;-69
2022/09/13 04:22:28;;;;;;;6.65;3.40;;;;;;;;;;5084794;28;20222;-69
2022/09/13 04:24:54;;;;;;;5.03;3.25;;;;;;;;;;5084991;28;20196;-69
2022/09/13 04:27:20;;;;;;;3.80;3.50;;;;;;;;;;5084797;28;20220;-70
2022/09/13 04:29:47;;;;;;;3.58;3.30;;;;;;;;;;5085238;28;20228;-69
2022/09/13 04:32:13;;;;;;;3.85;3.53;;;;;;;;;;5084804;28;20201;-69
2022/09/13 04:34:40;;;;;;;4.43;3.10;;;;;;;;;;5084983;28;20200;-70
2022/09/13 04:37:07;;;;;;;3.85;3.13;;;;;;;;;;5084805;28;20193;-69
2022/09/13 04:39:33;;;;;;;5.25;3.30;;;;;;;;;;5084606;28;20456;-69
2022/09/13 04:42:01;;;;;;;3.50;3.25;;;;;;;;;;5084706;28;20257;-69
2022/09/13 04:44:28;;;;;;;6.35;4.05;;;;;;;;;;5084570;28;20392;-69
2022/09/13 04:46:55;;;;;;;5.32;3.65;;;;;;;;;;5084470;28;20208;-69
2022/09/13 04:49:21;;;;;;;4.57;3.47;;;;;;;;;;5084650;28;20200;-70
2022/09/13 04:51:49;;;;;;;3.58;2.88;;;;;;;;;;5084836;28;20196;-70
2022/09/13 04:54:16;;;;;;;4.20;3.33;;;;;;;;;;5082773;28;20196;-70
2022/09/13 04:56:42;;;;;;;5.63;3.20;;;;;;;;;;5084688;28;20454;-70
2022/09/13 04:59:09;;;;;;;4.50;3.72;;;;;;;;;;5084484;28;20196;-70
2022/09/13 05:01:36;;;;;;;3.70;3.28;;;;;;;;;;5084423;28;20196;-70
2022/09/13 05:04:02;;;;;;;5.03;3.80;;;;;;;;;;5084156;28;20449;-70
2022/09/13 05:06:29;;;;;;;3.03;2.90;;;;;;;;;;5084580;28;20267;-70
2022/09/13 05:08:57;;;;;;;5.78;3.70;;;;;;;;;;5084156;28;20220;-70
2022/09/13 05:11:23;;;;;;;4.50;4.10;;;;;;;;;;5084580;28;20201;-70
2022/09/13 05:13:53;;;;;;;4.20;3.80;;;;;;;;;;5083805;28;20222;-70
2022/09/13 05:16:19;;;;;;;7.45;3.80;;;;;;;;;;5084258;28;20216;-70
2022/09/13 05:18:45;;;;;;;6.18;4.15;;;;;;;;;;5083934;28;20507;-69
2022/09/13 05:21:12;;;;;;;4.25;3.88;;;;;;;;;;5083758;28;20208;-69
2022/09/13 05:23:38;;;;;;;5.57;3.17;;;;;;;;;;5083192;28;20197;-69
2022/09/13 05:26:06;;;;;;;5.20;3.88;;;;;;;;;;5083565;28;20224;-70
2022/09/13 05:28:33;;;;;;;5.65;4.35;;;;;;;;;;5083506;28;20203;-69
2022/09/13 05:31:01;;;;;;;5.70;3.65;;;;;;;;;;5083429;28;20250;-70
2022/09/13 05:33:28;;;;;;;6.80;3.70;;;;;;;;;;5083143;28;20234;-70
2022/09/13 05:35:55;;;;;;;6.13;3.63;;;;;;;;;;5083240;28;20189;-70
2022/09/13 05:38:21;;;;;;;7.05;4.38;;;;;;;;;;5083157;28;20201;-70
2022/09/13 05:40:47;;;;;;;7.97;4.47;;;;;;;;;;5083515;28;20196;-69
2022/09/13 05:43:15;;;;;;;6.00;3.67;;;;;;;;;;5083004;28;20426;-70
2022/09/13 05:45:41;;;;;;;5.72;4.40;;;;;;;;;;5083585;28;20258;-69
2022/09/13 05:48:07;;;;;;;7.78;3.67;;;;;;;;;;5083531;28;20204;-70
2022/09/13 05:50:36;;;;;;;5.35;3.95;;;;;;;;;;5085234;28;20197;-70
2022/09/13 05:53:03;;;;;;;7.38;3.92;;;;;;;;;;5065748;28;20221;-64
2022/09/13 05:55:29;;;;;;;10.98;4.82;;;;;;;;;;5064398;28;20544;-62
2022/09/13 05:57:57;;;;;;;9.98;4.63;;;;;;;;;;5070906;28;20537;-61
2022/09/13 06:00:24;;;;;;;7.70;4.43;;;;;;;;;;5076900;28;20532;-62
2022/09/13 06:02:50;;;;;;;13.88;4.85;;;;;;;;;;5076550;28;20208;-60
2022/09/13 06:05:17;;;;;;;12.00;4.55;;;;;;;;;;5076332;28;20448;-62
2022/09/13 06:07:43;;;;;;;12.32;4.78;;;;;;;;;;5076103;28;20236;-60
2022/09/13 06:10:10;;;;;;;6.95;4.00;;;;;;;;;;5074903;28;20274;-60
2022/09/13 06:12:37;;;;;;;8.70;4.75;;;;;;;;;;5072699;28;20258;-61
2022/09/13 06:15:03;;;;;;;7.97;4.47;;;;;;;;;;5074230;28;20212;-60
2022/09/13 06:17:31;;;;;;;11.80;5.22;;;;;;;;;;5068771;28;20271;-61
2022/09/13 06:19:57;;;;;;;12.35;4.72;;;;;;;;;;5075202;28;20258;-61
2022/09/13 06:22:23;;;;;;;13.75;4.60;;;;;;;;;;5073893;28;20434;-60
2022/09/13 06:24:50;;;;;;;9.32;5.03;;;;;;;;;;5074353;28;20453;-61
2022/09/13 06:27:16;;;;;;;12.82;4.82;;;;;;;;;;5074316;28;20224;-59
2022/09/13 06:29:42;;;;;;;14.40;4.88;;;;;;;;;;5074714;28;20211;-60
2022/09/13 06:32:09;;;;;;;11.80;5.30;;;;;;;;;;5073738;28;20212;-60
2022/09/13 06:34:36;;;;;;;10.43;4.90;;;;;;;;;;5073709;28;20616;-60
2022/09/13 06:37:02;;;;;;;6.40;4.10;;;;;;;;;;5074633;28;20212;-61
2022/09/13 06:39:30;;;;;;;5.45;4.40;;;;;;;;;;5074148;28;20439;-62
2022/09/13 06:41:57;;;;;;;13.20;4.72;;;;;;;;;;5075098;28;20551;-60
2022/09/13 06:44:23;;;;;;;11.05;4.18;;;;;;;;;;5074339;28;20601;-60
2022/09/13 06:46:49;;;;;;;10.73;5.38;;;;;;;;;;5074302;28;20267;-61
2022/09/13 06:49:15;;;;;;;9.38;5.50;;;;;;;;;;5074389;28;20216;-61
2022/09/13 06:51:43;;;;;;;11.23;5.05;;;;;;;;;;5073993;28;20258;-61
2022/09/13 06:54:09;;;;;;;9.50;5.30;;;;;;;;;;5073758;28;20368;-61
2022/09/13 06:56:37;;;;;;;10.98;4.97;;;;;;;;;;5074470;28;20208;-60
2022/09/13 06:59:04;;;;;;;14.18;5.15;;;;;;;;;;5074269;28;20223;-59
2022/09/13 07:01:32;;;;;;;8.25;4.63;;;;;;;;;;5074378;28;20547;-60
2022/09/13 07:03:59;;;;;;;10.13;4.72;;;;;;;;;;5073993;28;20216;-60
2022/09/13 07:06:26;;;;;;;7.75;5.07;;;;;;;;;;5074164;28;20232;-61
2022/09/13 07:08:55;;;;;;;6.97;5.07;;;;;;;;;;5074665;28;20269;-60
2022/09/13 07:11:21;;;;;;;9.35;4.97;;;;;;;;;;5074536;28;20216;-61
2022/09/13 07:13:48;;;;;;;5.68;4.10;;;;;;;;;;5074250;28;20582;-60
2022/09/13 07:16:14;;;;;;;6.82;4.57;;;;;;;;;;5074362;28;20354;-61
2022/09/13 07:18:40;;;;;;;7.05;4.20;;;;;;;;;;5077645;28;20417;-61
2022/09/13 07:21:08;;;;;;;7.78;4.50;;;;;;;;;;5078617;28;20270;-61
2022/09/13 07:23:35;;;;;;;7.55;4.47;;;;;;;;;;5077915;28;20425;-60
2022/09/13 07:26:04;;;;;;;4.45;4.00;;;;;;;;;;5077792;28;20219;-60
2022/09/13 07:28:32;;;;;;;10.45;3.78;;;;;;;;;;5077319;28;20390;-61
2022/09/13 07:31:04;;;;;;;8.93;3.60;;;;;;;;;;5078306;28;20216;-60
2022/09/13 07:33:30;;;;;;;7.05;3.55;;;;;;;;;;5077336;28;20281;-61
2022/09/13 07:35:57;;;;;;;5.22;3.35;;;;;;;;;;5078668;28;20220;-59
2022/09/13 07:38:23;;;;;;;6.50;3.50;;;;;;;;;;5078481;28;20675;-61
2022/09/13 07:40:53;;;;;;;4.50;3.90;;;;;;;;;;5077807;28;20239;-59
2022/09/13 07:43:20;;;;;;;8.88;4.20;;;;;;;;;;5077288;28;20212;-59
2022/09/13 07:45:47;;;;;;;10.27;3.83;;;;;;;;;;5077611;28;20581;-60
2022/09/13 07:48:13;;;;;;;3.88;3.45;;;;;;;;;;5077401;28;20296;-61
2022/09/13 07:50:39;;;;;;;4.93;3.55;;;;;;;;;;5078344;28;20223;-60
2022/09/13 07:53:05;;;;;;;9.13;3.38;;;;;;;;;;5076752;28;20408;-61
2022/09/13 07:55:32;;;;;;;8.57;3.22;;;;;;;;;;5077056;28;20423;-61
2022/09/13 07:57:58;;;;;;;7.00;3.40;;;;;;;;;;5077413;28;20743;-60
2022/09/13 08:00:26;;;;;;;6.63;3.15;;;;;;;;;;5076965;28;20212;-60
2022/09/13 08:02:52;;;;;;;5.20;3.80;;;;;;;;;;5077383;28;20550;-61
2022/09/13 08:05:18;;;;;;;8.13;3.70;;;;;;;;;;5076999;28;20232;-61
2022/09/13 08:07:45;;;;;;;8.88;3.70;;;;;;;;;;5076932;28;20312;-60
2022/09/13 08:10:11;;;;;;;5.82;3.47;;;;;;;;;;5076826;28;20267;-61
2022/09/13 08:12:37;;;;;;;4.25;3.42;;;;;;;;;;5077058;28;20219;-61
2022/09/13 08:15:05;;;;;;;8.90;3.67;;;;;;;;;;5077613;28;20262;-59
2022/09/13 08:17:32;;;;;;;5.20;3.15;;;;;;;;;;5077537;28;20578;-61
2022/09/13 08:19:58;;;;;;;5.80;3.03;;;;;;;;;;5077477;28;20412;-61
2022/09/13 08:22:25;;;;;;;3.53;3.20;;;;;;;;;;5076855;28;20208;-61
2022/09/13 08:24:51;;;;;;;3.97;3.50;;;;;;;;;;5077259;28;20217;-60
2022/09/13 08:27:18;;;;;;;8.70;2.72;;;;;;;;;;5076313;28;20606;-61
2022/09/13 08:29:44;;;;;;;4.65;3.63;;;;;;;;;;5077640;28;20556;-61
2022/09/13 08:32:10;;;;;;;4.13;2.72;;;;;;;;;;5076382;28;20213;-61
2022/09/13 08:34:38;;;;;;;6.97;5.78;;;;;;;;;;5076473;28;20543;-61
2022/09/13 08:37:04;;;;;;;8.98;4.32;;;;;;;;;;5076806;28;20409;-61
2022/09/13 08:39:30;;;;;;;6.63;3.30;;;;;;;;;;5076919;28;20440;-60
2022/09/13 08:42:18;;;;;;;7.13;3.08;;;;;;;;;;5077503;28;20462;-62
2022/09/13 08:44:45;;;;;;;7.05;4.00;;;;;;;;;;5071333;28;20212;-61
2022/09/13 08:47:30;;;;;;;11.35;3.85;;;;;;;;;;5076942;28;20424;-60
2022/09/13 08:49:59;;;;;;;8.10;4.53;;;;;;;;;;5076487;28;20226;-60
2022/09/13 08:52:29;;;;;;;6.45;4.72;;;;;;;;;;5076710;28;20213;-61
2022/09/13 08:54:55;;;;;;;10.35;6.13;;;;;;;;;;5076913;28;20216;-61
2022/09/13 08:57:25;;;;;;;5.30;2.70;;;;;;;;;;5076373;28;20242;-61
2022/09/13 08:59:55;;;;;;;6.60;5.13;;;;;;;;;;5076481;28;20448;-61
2022/09/13 09:02:30;;;;;;;4.53;2.50;;;;;;;;;;5076168;28;20204;-60
2022/09/13 09:05:02;;;;;;;4.55;3.85;;;;;;;;;;5077038;28;20232;-61
2022/09/13 09:07:31;;;;;;;6.57;3.00;;;;;;;;;;5076643;28;20231;-61
2022/09/13 09:09:59;;;;;;;5.15;2.80;;;;;;;;;;5073008;28;20263;-60
2022/09/13 09:12:33;;;;;;;8.40;2.85;;;;;;;;;;5076271;28;20258;-60
2022/09/13 09:15:02;;;;;;;4.35;2.15;;;;;;;;;;5075768;28;20494;-61
2022/09/13 09:17:31;;;;;;;6.43;2.30;;;;;;;;;;5076448;28;20223;-61
2022/09/13 09:20:02;;;;;;;5.03;2.33;;;;;;;;;;5072508;28;20345;-61
2022/09/13 09:22:32;;;;;;;5.60;2.05;;;;;;;;;;5072541;28;20220;-60
2022/09/13 09:24:59;;;;;;;1.92;1.83;;;;;;;;;;5075710;28;20219;-61
2022/09/13 09:27:25;;;;;;;8.02;2.20;;;;;;;;;;5076062;28;20588;-62
2022/09/13 09:29:54;;;;;;;3.08;2.17;;;;;;;;;;5075865;28;20220;-62
2022/09/13 09:32:27;;;;;;;6.18;2.03;;;;;;;;;;5074830;28;20212;-62
2022/09/13 09:34:59;;;;;;;3.72;1.90;;;;;;;;;;5075920;28;20250;-63
2022/09/13 09:37:28;;;;;;;2.60;1.80;;;;;;;;;;5075732;28;20299;-63
2022/09/13 09:39:59;;;;;;;3.83;1.48;;;;;;;;;;5074597;28;20236;-59
2022/09/13 09:42:27;;;;;;;2.95;2.00;;;;;;;;;;5071309;28;20270;-61
2022/09/13 09:44:55;;;;;;;2.38;1.50;;;;;;;;;;5075762;28;20236;-62
2022/09/13 09:47:22;;;;;;;1.63;1.52;;;;;;;;;;5075572;28;20232;-61
2022/09/13 09:50:09;;;;;;;2.13;1.80;;;;;;;;;;5075863;28;20213;-61
2022/09/13 09:52:39;;;;;;;2.33;1.20;;;;;;;;;;5072758;28;20219;-61
2022/09/13 09:55:14;;;;;;;4.63;1.33;;;;;;;;;;5075300;28;20223;-61
2022/09/13 09:57:51;;;;;;;1.50;1.20;;;;;;;;;;5075239;28;20207;-61
2022/09/13 10:00:18;;;;;;;3.67;2.40;;;;;;;;;;5075016;28;20222;-60
2022/09/13 10:02:46;;;;;;;2.95;2.10;;;;;;;;;;5074947;28;20211;-60
2022/09/13 10:05:12;;;;;;;3.30;2.00;;;;;;;;;;5075369;28;20251;-61
2022/09/13 10:07:40;;;;;;;1.20;1.20;;;;;;;;;;5075030;28;20228;-62
2022/09/13 10:10:09;;;;;;;1.65;1.55;;;;;;;;;;5075141;28;20204;-61
2022/09/13 10:12:37;;;;;;;2.53;1.52;;;;;;;;;;5075054;28;20257;-59
2022/09/13 10:15:05;;;;;;;1.80;1.23;;;;;;;;;;5074860;28;20257;-63
2022/09/13 10:17:31;;;;;;;1.50;1.40;;;;;;;;;;5074794;28;20215;-61
2022/09/13 10:20:00;;;;;;;2.10;1.85;;;;;;;;;;5074968;28;20212;-61
2022/09/13 10:22:26;;;;;;;2.60;1.52;;;;;;;;;;5070455;28;20212;-61
2022/09/13 10:24:54;;;;;;;1.55;1.45;;;;;;;;;;5074194;28;20212;-61
2022/09/13 10:27:23;;;;;;;4.57;1.40;;;;;;;;;;5074093;28;20423;-61
2022/09/13 10:29:50;;;;;;;5.55;1.50;;;;;;;;;;5074557;28;20219;-61
2022/09/13 10:32:18;;;;;;;5.47;1.48;;;;;;;;;;5074049;28;20216;-60
2022/09/13 10:34:45;;;;;;;8.48;1.50;;;;;;;;;;5074097;28;20219;-63
2022/09/13 10:37:13;;;;;;;3.15;1.60;;;;;;;;;;5074663;28;20219;-61
2022/09/13 10:39:48;;;;;;;2.05;1.77;;;;;;;;;;5074172;28;20269;-60
2022/09/13 10:42:21;;;;;;;3.72;1.77;;;;;;;;;;5073785;28;20211;-60
2022/09/13 10:44:54;;;;;;;2.38;1.50;;;;;;;;;;5074611;28;20314;-61
2022/09/13 10:47:22;;;;;;;2.63;1.90;;;;;;;;;;5074279;28;20216;-61
2022/09/13 10:49:51;;;;;;;2.25;1.20;;;;;;;;;;5074103;28;20231;-60
2022/09/13 10:52:31;;;;;;;4.68;1.30;;;;;;;;;;5073824;28;20295;-60
2022/09/13 10:55:12;;;;;;;2.97;1.42;;;;;;;;;;5074367;28;20211;-61
2022/09/13 10:57:39;;;;;;;1.17;1.10;;;;;;;;;;5071688;28;20220;-61
2022/09/13 11:00:07;;;;;;;1.48;0.80;;;;;;;;;;5073928;28;20211;-61
2022/09/13 11:02:46;;;;;;;1.45;0.80;;;;;;;;;;5074008;28;20555;-61
2022/09/13 11:05:19;;;;;;;1.98;0.73;;;;;;;;;;5073428;28;20231;-61
2022/09/13 11:07:50;;;;;;;2.08;0.77;;;;;;;;;;5073495;28;20273;-61
2022/09/13 11:10:20;;;;;;;0.80;0.80;;;;;;;;;;5073581;28;20212;-59
2022/09/13 11:12:51;;;;;;;2.55;0.65;;;;;;;;;;5073614;28;20212;-61
2022/09/13 11:15:22;;;;;;;1.67;0.77;;;;;;;;;;5073864;28;20212;-60
2022/09/13 11:17:57;;;;;;;0.40;0.40;;;;;;;;;;5074205;28;20665;-60
2022/09/13 11:20:28;;;;;;;1.75;0.43;;;;;;;;;;5070715;28;20215;-61
2022/09/13 11:23:04;;;;;;;0.70;0.50;;;;;;;;;;5073963;28;20207;-61
2022/09/13 11:25:37;;;;;;;0.50;0.50;;;;;;;;;;5070392;28;20223;-61
2022/09/13 11:28:07;;;;;;;0.50;0.50;;;;;;;;;;5073885;28;20532;-61
2022/09/13 11:30:36;;;;;;;1.83;0.60;;;;;;;;;;5074242;28;20212;-60
2022/09/13 11:33:14;;;;;;;6.22;0.90;;;;;;;;;;5074134;28;20216;-61
2022/09/13 11:35:47;;;;;;;2.92;0.60;;;;;;;;;;5074444;28;20211;-61
2022/09/13 11:38:21;;;;;;;6.05;0.70;;;;;;;;;;5074232;28;20199;-61
2022/09/13 11:40:52;;;;;;;2.35;1.05;;;;;;;;;;5073835;28;20212;-60
2022/09/13 11:43:29;;;;;;;7.70;0.85;;;;;;;;;;5073623;28;20219;-61
2022/09/13 11:46:01;;;;;;;1.50;0.60;;;;;;;;;;5074562;28;20207;-60
2022/09/13 11:48:35;;;;;;;0.68;0.60;;;;;;;;;;5070648;28;20273;-59
2022/09/13 11:51:05;;;;;;;0.65;0.65;;;;;;;;;;5070715;28;20208;-60
2022/09/13 11:53:49;;;;;;;0.70;0.70;;;;;;;;;;5073508;28;20218;-62
2022/09/13 11:56:19;;;;;;;3.70;0.90;;;;;;;;;;5073828;28;20212;-62
2022/09/13 11:58:48;;;;;;;1.20;0.70;;;;;;;;;;5073809;28;20207;-61
2022/09/13 12:01:17;;;;;;;4.43;0.80;;;;;;;;;;5074035;28;20216;-62
2022/09/13 12:03:47;;;;;;;0.65;0.57;;;;;;;;;;5075144;28;20601;-62
2022/09/13 12:06:15;;;;;;;0.40;0.35;;;;;;;;;;5077353;28;20299;-62
2022/09/13 12:08:43;;;;;;;5.35;0.50;;;;;;;;;;5077797;28;20235;-62
2022/09/13 12:11:11;;;;;;;1.95;0.50;;;;;;;;;;5077458;28;20212;-61
2022/09/13 12:13:43;;;;;;;0.80;0.52;;;;;;;;;;5077141;28;20277;-62
2022/09/13 12:16:16;;;;;;;0.60;0.45;;;;;;;;;;5077601;28;20531;-62
2022/09/13 12:18:44;;;;;;;2.10;0.40;;;;;;;;;;5077556;28;20211;-62
2022/09/13 12:21:11;;;;;;;0.77;0.57;;;;;;;;;;5077189;28;20239;-62
2022/09/13 12:23:41;;;;;;;2.28;0.50;;;;;;;;;;5077197;28;20212;-62
2022/09/13 12:26:09;;;;;;;2.53;0.68;;;;;;;;;;5077326;28;20242;-61
2022/09/13 12:28:39;;;;;;;4.63;0.43;;;;;;;;;;5076904;28;20232;-62
2022/09/13 12:31:06;;;;;;;0.70;0.40;;;;;;;;;;5076621;28;20233;-62
2022/09/13 12:33:38;;;;;;;0.50;0.50;;;;;;;;;;5076545;28;20212;-60
2022/09/13 12:36:19;;;;;;;2.35;0.50;;;;;;;;;;5077177;28;20216;-62
2022/09/13 12:39:15;;;;;;;0.47;0.30;;;;;;;;;;5077225;28;20211;-62
2022/09/13 12:41:52;;;;;;;0.50;0.50;;;;;;;;;;5015024;28;20249;-62
2022/09/13 12:44:39;;;;;;;5.15;0.40;;;;;;;;;;5065485;28;20653;-62
2022/09/13 12:47:23;;;;;;;0.40;0.40;;;;;;;;;;5071371;28;20215;-63
2022/09/13 12:50:01;;;;;;;1.80;0.43;;;;;;;;;;5076595;28;20235;-62
2022/09/13 12:52:32;;;;;;;0.40;0.40;;;;;;;;;;5072985;28;20250;-62
2022/09/13 12:55:15;;;;;;;0.73;0.73;;;;;;;;;;5073824;28;20231;-60
2022/09/13 12:57:45;;;;;;;0.50;0.40;;;;;;;;;;5077042;28;20218;-62
2022/09/13 13:00:17;;;;;;;0.80;0.38;;;;;;;;;;5076504;28;20277;-60
2022/09/13 13:02:45;;;;;;;0.43;0.25;;;;;;;;;;5076153;28;20212;-61
2022/09/13 13:05:29;;;;;;;0.30;0.30;;;;;;;;;;5076547;28;20269;-62
2022/09/13 13:07:58;;;;;;;0.30;0.22;;;;;;;;;;5072799;28;20211;-62
2022/09/13 13:10:27;;;;;;;1.58;0.93;;;;;;;;;;5076140;28;20211;-63
2022/09/13 13:12:53;;;;;;;0.20;0.20;;;;;;;;;;5075989;28;20211;-63
2022/09/13 13:15:38;;;;;;;2.00;1.85;;;;;;;;;;5075136;28;20277;-62
2022/09/13 13:18:19;;;;;;;0.25;0.20;;;;;;;;;;5074240;28;20211;-62
2022/09/13 13:21:03;;;;;;;0.80;0.80;;;;;;;;;;5076088;28;20278;-62
2022/09/13 13:23:31;;;;;;;1.25;1.25;;;;;;;;;;5072889;28;20399;-62
2022/09/13 13:26:04;;;;;;;1.70;1.60;;;;;;;;;;5068946;28;20220;-62
2022/09/13 13:28:50;;;;;;;1.90;1.83;;;;;;;;;;5076056;28;20250;-62
2022/09/13 13:31:32;;;;;;;0.28;0.28;;;;;;;;;;5075493;28;20211;-61
2022/09/13 13:34:00;;;;;;;0.28;0.28;;;;;;;;;;5071987;28;20216;-62
2022/09/13 13:36:28;;;;;;;1.50;1.40;;;;;;;;;;5076068;28;20547;-69
2022/09/13 13:38:56;;;;;;;1.17;0.60;;;;;;;;;;5072608;28;20400;-69
2022/09/13 13:41:43;;;;;;;0.47;0.45;;;;;;;;;;5075762;28;20238;-69
2022/09/13 13:44:28;;;;;;;0.15;0.15;;;;;;;;;;5075259;28;20215;-69
2022/09/13 13:47:14;;;;;;;1.58;0.30;;;;;;;;;;5071638;28;20253;-69
2022/09/13 13:49:45;;;;;;;1.27;0.50;;;;;;;;;;5075298;28;20274;-69
2022/09/13 13:52:30;;;;;;;2.78;2.67;;;;;;;;;;5075134;28;20243;-69
2022/09/13 13:55:00;;;;;;;1.05;0.45;;;;;;;;;;5076304;28;20203;-69
2022/09/13 13:57:29;;;;;;;2.03;1.77;;;;;;;;;;5076225;28;20215;-69
2022/09/13 13:59:58;;;;;;;0.57;0.32;;;;;;;;;;5076576;28;20211;-69
2022/09/13 14:02:30;;;;;;;0.55;0.55;;;;;;;;;;5075449;28;20212;-69
2022/09/13 14:05:07;;;;;;;1.73;0.25;;;;;;;;;;5075719;28;20232;-69
2022/09/13 14:07:51;;;;;;;1.20;0.50;;;;;;;;;;5075267;28;20211;-69
2022/09/13 14:10:21;;;;;;;0.43;0.43;;;;;;;;;;5063119;28;20597;-69
2022/09/13 14:12:55;;;;;;;0.70;0.70;;;;;;;;;;5074403;28;20204;-69
2022/09/13 14:15:31;;;;;;;2.22;0.50;;;;;;;;;;5074920;28;20388;-69
2022/09/13 14:18:09;;;;;;;2.30;0.40;;;;;;;;;;5071808;28;20211;-69
2022/09/13 14:20:37;;;;;;;0.60;0.60;;;;;;;;;;5074848;28;20212;-69
2022/09/13 14:23:16;;;;;;;0.30;0.30;;;;;;;;;;5074552;28;20612;-69
2022/09/13 14:25:42;;;;;;;5.30;0.80;;;;;;;;;;5074857;28;20558;-69
2022/09/13 14:28:09;;;;;;;1.00;1.00;;;;;;;;;;5074661;28;20215;-69
2022/09/13 14:30:36;;;;;;;1.35;0.60;;;;;;;;;;5074740;28;20466;-69
2022/09/13 14:33:04;;;;;;;3.22;0.98;;;;;;;;;;5073910;28;20212;-69
2022/09/13 14:35:31;;;;;;;0.50;0.50;;;;;;;;;;5075076;28;20279;-69
2022/09/13 14:38:09;;;;;;;0.57;0.57;;;;;;;;;;5075214;28;20261;-69
2022/09/13 14:40:37;;;;;;;0.80;0.80;;;;;;;;;;5072431;28;20208;-69
2022/09/13 14:43:13;;;;;;;2.15;0.40;;;;;;;;;;5074499;28;20438;-69
2022/09/13 14:45:39;;;;;;;2.35;2.25;;;;;;;;;;5074649;28;20219;-69
2022/09/13 14:48:07;;;;;;;0.93;0.93;;;;;;;;;;5074459;28;20254;-69
2022/09/13 14:50:35;;;;;;;3.03;2.47;;;;;;;;;;5075088;28;20486;-69
2022/09/13 14:53:03;;;;;;;2.70;1.70;;;;;;;;;;5074162;28;20253;-69
2022/09/13 14:55:31;;;;;;;1.27;1.00;;;;;;;;;;5074514;28;20527;-69
2022/09/13 14:58:01;;;;;;;1.17;0.68;;;;;;;;;;5074675;28;20257;-69